createdAt,value
2018-01-31T01:53:10.700Z,6.76
2018-01-31T01:55:39.638Z,6.62
2018-01-31T01:58:07.827Z,6.61
2018-01-31T02:00:35.991Z,6.56
2018-01-31T02:03:04.154Z,6.53
2018-01-31T02:05:32.320Z,6.56
2018-01-31T02:08:00.489Z,6.55
2018-01-31T02:10:28.681Z,6.59
2018-01-31T02:12:56.846Z,6.67
2018-01-31T02:15:25.018Z,6.63
2018-01-31T02:17:53.185Z,6.64
2018-01-31T02:20:21.352Z,6.60
2018-01-31T02:22:49.511Z,6.53
2018-01-31T02:25:18.438Z,6.50
2018-01-31T02:27:46.602Z,6.52
2018-01-31T02:30:14.772Z,6.52
2018-01-31T02:32:42.944Z,6.52
2018-01-31T02:35:11.114Z,6.54
2018-01-31T02:37:39.720Z,6.52
2018-01-31T02:40:07.884Z,6.49
2018-01-31T02:42:36.045Z,6.57
2018-01-31T02:45:04.233Z,6.61
2018-01-31T02:47:32.409Z,6.62
2018-01-31T02:50:00.575Z,6.67
2018-01-31T02:52:28.741Z,6.69
2018-01-31T02:54:56.915Z,6.64
2018-01-31T02:57:25.073Z,6.71
2018-01-31T02:59:54.009Z,6.65
2018-01-31T03:02:22.174Z,6.67
2018-01-31T03:04:50.326Z,6.76
2018-01-31T03:07:18.521Z,6.76
2018-01-31T03:09:46.681Z,6.80
2018-01-31T03:12:14.841Z,6.75
2018-01-31T03:14:43.783Z,6.70
2018-01-31T03:17:11.956Z,6.66
2018-01-31T03:19:40.153Z,6.75
2018-01-31T03:22:08.317Z,6.76
2018-01-31T03:24:36.485Z,6.75
2018-01-31T03:27:04.646Z,6.77
2018-01-31T03:29:32.817Z,6.75
2018-01-31T03:32:01.003Z,6.77
2018-01-31T03:34:29.174Z,6.75
2018-01-31T03:36:57.345Z,6.70
2018-01-31T03:39:25.536Z,6.72
2018-01-31T03:41:53.701Z,6.77
2018-01-31T03:44:21.876Z,6.78
2018-01-31T03:46:50.034Z,6.83
2018-01-31T03:49:18.192Z,6.82
2018-01-31T03:51:46.385Z,6.82
2018-01-31T03:54:14.538Z,6.85
2018-01-31T03:56:42.702Z,6.89
2018-01-31T03:59:10.896Z,6.88
2018-01-31T04:01:39.048Z,6.84
2018-01-31T04:04:07.972Z,6.86
2018-01-31T04:06:36.146Z,6.86
2018-01-31T04:09:04.358Z,6.85
2018-01-31T04:11:32.532Z,6.86
2018-01-31T04:14:00.690Z,6.87
2018-01-31T04:16:28.891Z,6.87
2018-01-31T04:18:57.053Z,6.82
2018-01-31T04:21:25.214Z,6.85
2018-01-31T04:23:53.377Z,6.89
2018-01-31T04:26:21.581Z,6.89
2018-01-31T04:28:49.743Z,6.90
2018-01-31T04:31:17.902Z,6.91
2018-01-31T04:33:46.118Z,6.92
2018-01-31T04:36:15.064Z,6.95
2018-01-31T04:38:43.229Z,6.96
2018-01-31T04:41:11.384Z,6.97
2018-01-31T04:43:39.553Z,6.98
2018-01-31T04:46:07.721Z,7.00
2018-01-31T04:48:36.658Z,7.02
2018-01-31T04:51:04.855Z,7.06
2018-01-31T04:53:33.024Z,7.08
2018-01-31T04:56:01.246Z,7.06
2018-01-31T04:58:29.407Z,7.09
2018-01-31T05:00:58.344Z,7.10
2018-01-31T05:03:26.497Z,7.11
2018-01-31T05:05:54.650Z,7.13
2018-01-31T05:08:23.598Z,7.10
2018-01-31T05:10:51.773Z,7.17
2018-01-31T05:13:20.720Z,7.18
2018-01-31T05:15:48.918Z,7.17
2018-01-31T05:18:17.089Z,7.22
2018-01-31T05:20:45.245Z,7.23
2018-01-31T05:23:13.415Z,7.28
2018-01-31T05:25:41.585Z,7.33
2018-01-31T05:28:10.530Z,7.25
2018-01-31T05:30:38.696Z,7.26
2018-01-31T05:33:06.884Z,7.28
2018-01-31T05:35:35.046Z,7.29
2018-01-31T05:38:03.210Z,7.30
2018-01-31T05:40:31.363Z,7.34
2018-01-31T05:43:00.422Z,7.32
2018-01-31T05:45:28.586Z,7.34
2018-01-31T05:47:56.743Z,7.31
2018-01-31T05:50:24.915Z,7.28
2018-01-31T05:52:53.074Z,7.28
2018-01-31T05:55:21.267Z,7.33
2018-01-31T05:57:49.431Z,7.36
2018-01-31T06:00:17.596Z,7.38
2018-01-31T06:02:45.767Z,7.41
2018-01-31T06:05:13.997Z,7.38
2018-01-31T06:07:42.168Z,7.36
2018-01-31T06:10:10.332Z,7.39
2018-01-31T06:12:38.515Z,7.40
2018-01-31T06:15:06.693Z,7.42
2018-01-31T06:17:34.858Z,7.41
2018-01-31T06:20:03.026Z,7.44
2018-01-31T06:22:31.199Z,7.41
2018-01-31T06:24:59.382Z,7.40
2018-01-31T06:27:27.585Z,7.42
2018-01-31T06:29:56.525Z,7.42
2018-01-31T06:32:24.694Z,7.42
2018-01-31T06:34:52.905Z,7.45
2018-01-31T06:37:21.093Z,7.44
2018-01-31T06:39:50.013Z,7.44
2018-01-31T06:42:18.179Z,7.45
2018-01-31T06:44:46.341Z,7.44
2018-01-31T06:47:15.275Z,7.47
2018-01-31T06:49:43.485Z,7.51
2018-01-31T06:52:11.669Z,7.53
2018-01-31T06:54:40.606Z,7.55
2018-01-31T06:57:08.807Z,7.54
2018-01-31T06:59:37.023Z,7.53
2018-01-31T07:02:05.974Z,7.57
2018-01-31T07:04:34.162Z,7.59
2018-01-31T07:07:02.322Z,7.54
2018-01-31T07:09:31.274Z,7.59
2018-01-31T07:11:59.481Z,7.63
2018-01-31T07:14:27.662Z,7.64
2018-01-31T07:16:55.918Z,7.64
2018-01-31T07:19:24.081Z,7.67
2018-01-31T07:21:52.342Z,7.70
2018-01-31T07:24:21.265Z,7.72
2018-01-31T07:26:49.440Z,7.73
2018-01-31T07:29:17.591Z,7.75
2018-01-31T07:31:45.756Z,7.81
2018-01-31T07:34:14.685Z,7.79
2018-01-31T07:36:42.850Z,7.82
2018-01-31T07:39:11.045Z,7.82
2018-01-31T07:41:39.216Z,7.88
2018-01-31T07:44:07.373Z,7.92
2018-01-31T07:46:35.529Z,7.87
2018-01-31T07:49:03.699Z,7.89
2018-01-31T07:51:31.874Z,8.00
2018-01-31T07:54:00.057Z,8.01
2018-01-31T07:56:28.261Z,8.06
2018-01-31T07:58:56.421Z,8.11
2018-01-31T08:01:24.601Z,8.13
2018-01-31T08:03:52.793Z,8.13
2018-01-31T08:06:21.015Z,8.17
2018-01-31T08:08:49.955Z,8.18
2018-01-31T08:11:18.149Z,8.14
2018-01-31T08:13:46.338Z,8.20
2018-01-31T08:16:14.501Z,8.16
2018-01-31T08:18:42.683Z,8.15
2018-01-31T08:21:10.850Z,8.16
2018-01-31T08:23:39.014Z,8.18
2018-01-31T08:26:07.189Z,8.20
2018-01-31T08:28:35.372Z,8.25
2018-01-31T08:31:03.537Z,8.24
2018-01-31T08:33:31.725Z,8.25
2018-01-31T08:35:59.893Z,8.24
2018-01-31T08:38:28.072Z,8.25
2018-01-31T08:40:56.278Z,8.24
2018-01-31T08:43:25.222Z,8.26
2018-01-31T08:45:53.401Z,8.39
2018-01-31T08:48:21.573Z,8.56
2018-01-31T08:50:49.789Z,8.68
2018-01-31T08:53:18.721Z,8.63
2018-01-31T08:55:46.906Z,8.60
2018-01-31T08:58:15.086Z,8.56
2018-01-31T09:00:43.254Z,8.55
2018-01-31T09:03:11.477Z,8.56
2018-01-31T09:05:40.445Z,8.57
2018-01-31T09:08:08.637Z,8.63
2018-01-31T09:10:36.860Z,8.69
2018-01-31T09:13:05.041Z,8.57
2018-01-31T09:15:33.195Z,8.56
2018-01-31T09:18:01.360Z,8.53
2018-01-31T09:20:29.542Z,8.59
2018-01-31T09:22:57.701Z,8.73
2018-01-31T09:25:26.699Z,8.76
2018-01-31T09:27:54.854Z,8.72
2018-01-31T09:30:23.790Z,8.80
2018-01-31T09:32:51.985Z,8.83
2018-01-31T09:35:20.195Z,8.84
2018-01-31T09:37:48.386Z,8.92
2018-01-31T09:40:17.316Z,9.02
2018-01-31T09:42:45.473Z,9.08
2018-01-31T09:45:13.662Z,9.14
2018-01-31T09:47:41.837Z,9.17
2018-01-31T09:50:09.994Z,9.28
2018-01-31T09:52:38.182Z,9.37
2018-01-31T09:55:06.366Z,9.52
2018-01-31T09:57:34.593Z,9.85
2018-01-31T10:00:03.526Z,9.91
2018-01-31T10:02:31.698Z,9.99
2018-01-31T10:04:59.858Z,9.89
2018-01-31T10:07:28.013Z,9.93
2018-01-31T10:09:56.993Z,10.00
2018-01-31T10:12:25.350Z,10.10
2018-01-31T10:14:53.518Z,10.12
2018-01-31T10:17:21.680Z,10.11
2018-01-31T10:19:49.881Z,10.09
2018-01-31T10:22:18.044Z,10.08
2018-01-31T10:24:46.209Z,10.05
2018-01-31T10:27:15.729Z,10.11
2018-01-31T10:29:43.913Z,10.15
2018-01-31T10:32:12.073Z,10.24
2018-01-31T10:34:40.238Z,10.43
2018-01-31T10:37:08.433Z,10.38
2018-01-31T10:39:36.594Z,10.38
2018-01-31T10:42:04.765Z,10.39
2018-01-31T10:44:32.930Z,10.57
2018-01-31T10:47:01.091Z,10.68
2018-01-31T10:49:29.253Z,10.80
2018-01-31T10:51:57.425Z,11.12
2018-01-31T10:59:22.030Z,11.29
2018-01-31T11:01:51.114Z,11.00
2018-01-31T11:04:19.221Z,11.00
2018-01-31T11:06:47.393Z,10.97
2018-01-31T11:09:15.571Z,10.99
2018-01-31T11:11:43.738Z,11.02
2018-01-31T11:14:11.906Z,11.20
2018-01-31T11:16:40.837Z,11.13
2018-01-31T11:19:09.017Z,11.06
2018-01-31T11:21:37.954Z,11.12
2018-01-31T11:24:06.898Z,10.86
2018-01-31T11:26:35.875Z,10.76
2018-01-31T11:29:04.027Z,10.90
2018-01-31T11:31:32.955Z,10.70
2018-01-31T11:34:01.134Z,10.55
2018-01-31T11:36:29.301Z,10.47
2018-01-31T11:38:57.467Z,10.37
2018-01-31T11:41:25.695Z,10.36
2018-01-31T11:43:53.857Z,10.17
2018-01-31T11:46:22.024Z,10.22
2018-01-31T11:48:50.213Z,10.02
2018-01-31T11:51:18.375Z,9.96
2018-01-31T11:53:46.541Z,9.93
2018-01-31T11:56:14.723Z,10.17
2018-01-31T11:58:42.886Z,10.23
2018-01-31T12:01:11.047Z,10.30
2018-01-31T12:03:39.232Z,10.22
2018-01-31T12:06:07.414Z,10.12
2018-01-31T12:08:35.580Z,10.02
2018-01-31T12:11:03.768Z,9.99
2018-01-31T12:17:05.380Z,9.68
2018-01-31T12:20:07.129Z,9.85
2018-01-31T12:22:53.272Z,10.12
2018-01-31T12:25:39.350Z,10.05
2018-01-31T12:31:29.059Z,9.76
2018-01-31T12:34:15.224Z,9.84
2018-01-31T12:37:02.059Z,9.61
2018-01-31T12:39:29.476Z,9.76
2018-01-31T12:41:56.896Z,9.81
2018-01-31T12:44:24.299Z,10.13
2018-01-31T12:47:11.054Z,10.30
2018-01-31T12:49:57.224Z,10.64
2018-01-31T12:55:47.782Z,11.19
2018-01-31T12:58:33.601Z,11.67
2018-01-31T13:01:19.776Z,12.06
2018-01-31T13:04:05.722Z,12.24
2018-01-31T13:06:52.609Z,12.59
2018-01-31T13:09:51.504Z,12.52
2018-01-31T13:12:37.598Z,12.35
2018-01-31T13:15:23.429Z,12.16
2018-01-31T13:17:58.543Z,12.71
2018-01-31T13:20:45.358Z,13.83
2018-01-31T13:23:14.304Z,15.24
2018-01-31T13:26:00.401Z,15.95
2018-01-31T13:28:46.588Z,18.55
2018-01-31T13:31:33.179Z,21.16
2018-01-31T13:34:19.163Z,21.70
2018-01-31T13:37:05.157Z,21.48
2018-01-31T13:39:51.249Z,20.31
2018-01-31T13:42:42.789Z,19.58
2018-01-31T13:45:28.781Z,18.75
2018-01-31T13:48:14.866Z,17.86
2018-01-31T13:53:58.674Z,15.33
2018-01-31T13:56:44.705Z,14.91
2018-01-31T13:59:30.739Z,13.99
2018-01-31T14:05:24.213Z,13.04
2018-01-31T14:08:10.207Z,13.59
2018-01-31T14:10:56.428Z,15.19
2018-01-31T14:13:42.609Z,16.28
2018-01-31T14:16:28.486Z,16.01
2018-01-31T14:19:14.398Z,16.91
2018-01-31T14:22:00.277Z,18.31
2018-01-31T14:27:49.637Z,20.71
2018-01-31T14:30:35.694Z,21.67
2018-01-31T14:33:21.593Z,22.45
2018-01-31T14:36:08.444Z,23.22
2018-01-31T14:38:35.863Z,24.71
2018-01-31T14:41:04.058Z,24.75
2018-01-31T14:43:31.480Z,24.28
2018-01-31T14:45:58.914Z,23.13
2018-01-31T14:48:26.344Z,23.36
2018-01-31T14:50:53.822Z,22.66
2018-01-31T14:53:21.251Z,22.02
2018-01-31T14:55:48.685Z,21.82
2018-01-31T14:58:16.900Z,21.40
2018-01-31T15:00:44.365Z,20.52
2018-01-31T15:03:11.798Z,20.39
2018-01-31T15:05:39.231Z,20.83
2018-01-31T15:08:07.407Z,21.51
2018-01-31T15:10:35.601Z,20.90
2018-01-31T15:13:03.022Z,19.70
2018-01-31T15:15:30.454Z,19.50
2018-01-31T15:17:57.866Z,18.85
2018-01-31T15:20:25.300Z,18.14
2018-01-31T15:22:53.497Z,16.82
2018-01-31T15:25:20.952Z,16.19
2018-01-31T15:27:49.134Z,15.80
2018-01-31T15:30:16.564Z,15.33
2018-01-31T15:32:44.749Z,14.95
2018-01-31T15:35:12.929Z,14.58
2018-01-31T15:37:41.216Z,14.28
2018-01-31T15:40:08.634Z,13.31
2018-01-31T15:42:36.055Z,12.70
2018-01-31T15:45:03.485Z,12.15
2018-01-31T15:47:30.921Z,11.60
2018-01-31T15:49:59.105Z,11.00
2018-01-31T15:52:27.298Z,10.45
2018-01-31T15:54:54.733Z,10.18
2018-01-31T15:57:22.907Z,9.92
2018-01-31T15:59:51.079Z,9.63
2018-01-31T16:02:19.262Z,9.39
2018-01-31T16:04:47.437Z,9.28
2018-01-31T16:07:15.675Z,8.94
2018-01-31T16:09:43.114Z,8.79
2018-01-31T16:12:10.531Z,8.65
2018-01-31T16:14:38.019Z,8.70
2018-01-31T16:17:06.203Z,8.54
2018-01-31T16:19:52.361Z,8.38
2018-01-31T16:22:21.371Z,8.28
2018-01-31T16:24:49.545Z,8.23
2018-01-31T16:27:23.797Z,8.14
2018-01-31T16:30:13.437Z,8.09
2018-01-31T16:32:59.533Z,8.11
2018-01-31T16:35:27.698Z,7.94
2018-01-31T16:37:55.866Z,7.87
2018-01-31T16:40:24.079Z,7.78
2018-01-31T16:42:52.248Z,7.66
2018-01-31T16:45:20.448Z,7.65
2018-01-31T16:47:49.395Z,7.58
2018-01-31T16:50:17.678Z,7.56
2018-01-31T16:52:45.880Z,7.52
2018-01-31T16:55:14.079Z,7.46
2018-01-31T16:57:42.268Z,7.38
2018-01-31T17:00:11.215Z,7.36
2018-01-31T17:02:39.403Z,7.23
2018-01-31T17:05:07.582Z,7.16
2018-01-31T17:07:35.757Z,7.06
2018-01-31T17:10:03.957Z,6.99
2018-01-31T17:12:32.998Z,6.92
2018-01-31T17:15:01.190Z,6.87
2018-01-31T17:17:29.361Z,6.78
2018-01-31T17:19:57.537Z,6.76
2018-01-31T17:22:25.715Z,6.75
2018-01-31T17:24:54.696Z,6.79
2018-01-31T17:27:23.029Z,6.69
2018-01-31T17:29:52.394Z,6.59
2018-01-31T17:32:20.675Z,6.49
2018-01-31T17:34:48.876Z,6.40
2018-01-31T17:37:17.089Z,6.41
2018-01-31T17:39:45.297Z,6.34
2018-01-31T17:42:13.471Z,6.33
2018-01-31T17:44:41.673Z,6.21
2018-01-31T17:47:09.927Z,6.21
2018-01-31T17:49:38.056Z,6.21
2018-01-31T17:52:06.248Z,6.15
2018-01-31T17:54:34.435Z,6.14
2018-01-31T17:57:02.622Z,6.11
2018-01-31T17:59:30.838Z,6.03
2018-01-31T18:01:59.808Z,5.85
2018-01-31T18:04:28.038Z,5.83
2018-01-31T18:06:56.286Z,5.73
2018-01-31T18:09:25.219Z,5.70
2018-01-31T18:11:53.402Z,5.65
2018-01-31T18:14:21.590Z,5.56
2018-01-31T18:16:49.768Z,5.47
2018-01-31T18:19:17.961Z,5.51
2018-01-31T18:21:46.131Z,5.46
2018-01-31T18:24:14.315Z,5.42
2018-01-31T18:26:43.321Z,5.39
2018-01-31T18:29:12.270Z,5.34
2018-01-31T18:31:40.443Z,5.32
2018-01-31T18:34:08.619Z,5.28
2018-01-31T18:36:36.837Z,5.26
2018-01-31T18:39:05.791Z,5.23
2018-01-31T18:41:33.978Z,5.22
2018-01-31T18:44:02.156Z,5.19
2018-01-31T18:46:30.358Z,5.17
2018-01-31T18:48:59.295Z,5.16
2018-01-31T18:51:27.488Z,5.14
2018-01-31T18:53:55.666Z,5.10
2018-01-31T18:56:23.863Z,5.06
2018-01-31T18:58:52.807Z,5.01
2018-01-31T19:01:21.006Z,5.03
2018-01-31T19:03:49.180Z,4.89
2018-01-31T19:06:17.448Z,4.85
2018-01-31T19:08:45.643Z,4.86
2018-01-31T19:11:13.867Z,4.85
2018-01-31T19:13:42.137Z,4.82
2018-01-31T19:16:10.323Z,4.83
2018-01-31T19:18:38.524Z,4.81
2018-01-31T19:21:06.705Z,4.79
2018-01-31T19:23:34.899Z,4.79
2018-01-31T19:26:03.098Z,4.79
2018-01-31T19:28:31.282Z,4.77
2018-01-31T19:30:59.480Z,4.70
2018-01-31T19:33:27.650Z,4.70
2018-01-31T19:35:55.857Z,4.68
2018-01-31T19:38:24.040Z,4.65
2018-01-31T19:40:52.260Z,4.60
2018-01-31T19:43:20.437Z,4.56
2018-01-31T19:45:48.617Z,4.50
2018-01-31T19:48:16.799Z,4.45
2018-01-31T19:50:45.231Z,4.41
2018-01-31T19:53:14.198Z,4.37
2018-01-31T19:55:42.423Z,4.33
2018-01-31T19:58:10.599Z,4.34
2018-01-31T20:00:38.779Z,4.34
2018-01-31T20:03:06.966Z,4.36
2018-01-31T20:05:35.151Z,4.32
2018-01-31T20:08:03.375Z,4.31
2018-01-31T20:10:31.574Z,4.27
2018-01-31T20:12:59.752Z,4.34
2018-01-31T20:15:27.974Z,4.26
2018-01-31T20:17:56.150Z,4.29
2018-01-31T20:20:24.321Z,4.28
2018-01-31T20:22:52.523Z,4.25
2018-01-31T20:25:20.817Z,4.20
2018-01-31T20:27:49.760Z,4.15
2018-01-31T20:30:17.933Z,4.10
2018-01-31T20:32:46.121Z,4.02
2018-01-31T20:35:14.338Z,3.97
2018-01-31T20:37:42.531Z,3.96
2018-01-31T20:40:11.484Z,3.93
2018-01-31T20:42:39.695Z,3.92
2018-01-31T20:45:07.882Z,3.85
2018-01-31T20:47:36.059Z,3.80
2018-01-31T20:50:04.330Z,3.82
2018-01-31T20:52:32.502Z,3.80
2018-01-31T20:55:00.765Z,3.71
2018-01-31T20:57:28.960Z,3.67
2018-01-31T20:59:57.151Z,3.62
2018-01-31T21:02:25.333Z,3.58
2018-01-31T21:04:53.525Z,3.54
2018-01-31T21:07:22.495Z,3.54
2018-01-31T21:09:50.702Z,3.48
2018-01-31T21:12:18.901Z,3.45
2018-01-31T21:14:47.148Z,3.43
2018-01-31T21:17:16.185Z,3.38
2018-01-31T21:19:44.376Z,3.35
2018-01-31T21:22:12.590Z,3.35
2018-01-31T21:24:41.573Z,3.33
2018-01-31T21:27:10.559Z,3.50
2018-01-31T21:29:38.745Z,3.46
2018-01-31T21:32:07.744Z,3.39
2018-01-31T21:34:36.734Z,3.35
2018-01-31T21:37:05.702Z,3.35
2018-01-31T21:39:33.929Z,3.31
2018-01-31T21:42:02.203Z,3.33
2018-01-31T21:44:30.400Z,3.29
2018-01-31T21:46:58.598Z,3.27
2018-01-31T21:49:26.827Z,3.24
2018-01-31T21:51:55.020Z,3.12
2018-01-31T21:54:23.191Z,3.11
2018-01-31T21:56:51.401Z,3.07
2018-01-31T21:59:19.577Z,3.01
2018-01-31T22:01:47.751Z,2.98
2018-01-31T22:04:15.972Z,2.96
2018-01-31T22:06:44.227Z,2.91
2018-01-31T22:09:13.263Z,2.92
2018-01-31T22:11:41.428Z,2.91
2018-01-31T22:14:09.614Z,2.83
2018-01-31T22:16:37.808Z,2.83
2018-01-31T22:19:06.014Z,2.82
2018-01-31T22:21:34.196Z,2.90
2018-01-31T22:24:03.179Z,2.99
2018-01-31T22:26:31.380Z,3.00
2018-01-31T22:28:59.567Z,2.96
2018-01-31T22:31:27.774Z,2.97
2018-01-31T22:33:56.020Z,2.95
2018-01-31T22:36:24.248Z,2.91
2018-01-31T22:38:52.426Z,2.88
2018-01-31T22:41:20.611Z,2.86
2018-01-31T22:43:49.577Z,2.80
2018-01-31T22:46:17.750Z,2.81
2018-01-31T22:48:45.928Z,2.81
2018-01-31T22:51:14.130Z,2.83
2018-01-31T22:53:43.138Z,2.78
2018-01-31T22:56:12.076Z,2.80
2018-01-31T22:58:40.239Z,2.70
2018-01-31T23:01:08.420Z,2.65
2018-01-31T23:03:36.595Z,2.65
2018-01-31T23:06:04.777Z,2.63
2018-01-31T23:08:32.960Z,2.59
2018-01-31T23:11:01.138Z,2.58
2018-01-31T23:13:29.333Z,2.56
2018-01-31T23:15:57.512Z,2.57
2018-01-31T23:18:25.814Z,2.58
2018-01-31T23:20:54.004Z,2.57
2018-01-31T23:23:22.195Z,2.52
2018-01-31T23:25:50.380Z,2.53
2018-01-31T23:28:18.574Z,2.51
2018-01-31T23:30:46.762Z,2.53
2018-01-31T23:33:14.930Z,2.50
2018-01-31T23:35:43.110Z,2.51
2018-01-31T23:38:11.295Z,2.49
2018-01-31T23:40:40.239Z,2.50
2018-01-31T23:43:08.437Z,2.55
2018-01-31T23:45:36.627Z,2.57
2018-01-31T23:48:04.807Z,2.68
2018-01-31T23:50:33.754Z,2.77
2018-01-31T23:53:01.926Z,2.89
2018-01-31T23:55:30.178Z,3.00
2018-01-31T23:57:58.356Z,3.09
